sensor_id;sensor_type;location;lat;lon;timestamp;P1;durP1;ratioP1;P2;durP2;ratioP2
61054;SDS011;46939;48.940;8.258;2022-11-20T00:01:58;12.50;;;7.38;;
61054;SDS011;46939;48.940;8.258;2022-11-20T00:04:26;10.43;;;6.40;;
61054;SDS011;46939;48.940;8.258;2022-11-20T00:06:55;15.73;;;7.68;;
61054;SDS011;46939;48.940;8.258;2022-11-20T00:09:26;11.18;;;6.18;;
61054;SDS011;46939;48.940;8.258;2022-11-20T00:11:54;11.73;;;6.35;;
61054;SDS011;46939;48.940;8.258;2022-11-20T00:14:22;12.25;;;7.15;;
61054;SDS011;46939;48.940;8.258;2022-11-20T00:16:51;12.93;;;7.38;;
61054;SDS011;46939;48.940;8.258;2022-11-20T00:19:19;12.25;;;6.88;;
61054;SDS011;46939;48.940;8.258;2022-11-20T00:21:47;12.52;;;7.72;;
61054;SDS011;46939;48.940;8.258;2022-11-20T00:24:18;16.15;;;7.20;;
61054;SDS011;46939;48.940;8.258;2022-11-20T00:26:49;11.43;;;6.35;;
61054;SDS011;46939;48.940;8.258;2022-11-20T00:29:18;13.27;;;7.28;;
61054;SDS011;46939;48.940;8.258;2022-11-20T00:31:46;10.93;;;5.95;;
61054;SDS011;46939;48.940;8.258;2022-11-20T00:34:14;12.00;;;6.25;;
61054;SDS011;46939;48.940;8.258;2022-11-20T00:36:43;12.40;;;6.93;;
61054;SDS011;46939;48.940;8.258;2022-11-20T00:39:11;11.02;;;6.25;;
61054;SDS011;46939;48.940;8.258;2022-11-20T00:41:39;8.98;;;5.43;;
61054;SDS011;46939;48.940;8.258;2022-11-20T00:44:10;12.05;;;6.63;;
61054;SDS011;46939;48.940;8.258;2022-11-20T00:46:39;8.48;;;5.35;;
61054;SDS011;46939;48.940;8.258;2022-11-20T00:49:07;10.45;;;5.95;;
61054;SDS011;46939;48.940;8.258;2022-11-20T00:51:35;11.57;;;6.53;;
61054;SDS011;46939;48.940;8.258;2022-11-20T00:54:04;10.43;;;5.93;;
61054;SDS011;46939;48.940;8.258;2022-11-20T00:56:32;12.57;;;6.68;;
61054;SDS011;46939;48.940;8.258;2022-11-20T00:59:00;12.90;;;7.05;;
61054;SDS011;46939;48.940;8.258;2022-11-20T01:01:31;12.80;;;7.22;;
61054;SDS011;46939;48.940;8.258;2022-11-20T01:04:00;11.02;;;6.63;;
61054;SDS011;46939;48.940;8.258;2022-11-20T01:06:29;10.82;;;5.93;;
61054;SDS011;46939;48.940;8.258;2022-11-20T01:08:59;11.35;;;6.07;;
61054;SDS011;46939;48.940;8.258;2022-11-20T01:11:29;12.57;;;6.28;;
61054;SDS011;46939;48.940;8.258;2022-11-20T01:13:59;10.73;;;6.60;;
61054;SDS011;46939;48.940;8.258;2022-11-20T01:16:29;10.98;;;5.60;;
61054;SDS011;46939;48.940;8.258;2022-11-20T01:19:02;11.32;;;5.70;;
61054;SDS011;46939;48.940;8.258;2022-11-20T01:21:34;9.00;;;5.38;;
61054;SDS011;46939;48.940;8.258;2022-11-20T01:24:04;8.20;;;5.18;;
61054;SDS011;46939;48.940;8.258;2022-11-20T01:26:35;10.70;;;6.15;;
61054;SDS011;46939;48.940;8.258;2022-11-20T01:29:05;11.05;;;6.10;;
61054;SDS011;46939;48.940;8.258;2022-11-20T01:31:37;15.15;;;6.13;;
61054;SDS011;46939;48.940;8.258;2022-11-20T01:34:06;9.77;;;5.55;;
61054;SDS011;46939;48.940;8.258;2022-11-20T01:36:37;10.25;;;5.63;;
61054;SDS011;46939;48.940;8.258;2022-11-20T01:39:07;10.82;;;5.70;;
61054;SDS011;46939;48.940;8.258;2022-11-20T01:41:38;10.70;;;6.18;;
61054;SDS011;46939;48.940;8.258;2022-11-20T01:44:20;13.75;;;5.65;;
61054;SDS011;46939;48.940;8.258;2022-11-20T01:46:55;11.07;;;5.95;;
61054;SDS011;46939;48.940;8.258;2022-11-20T01:49:27;9.95;;;5.88;;
61054;SDS011;46939;48.940;8.258;2022-11-20T01:52:03;9.40;;;5.50;;
61054;SDS011;46939;48.940;8.258;2022-11-20T01:54:35;11.07;;;6.35;;
61054;SDS011;46939;48.940;8.258;2022-11-20T01:57:08;9.52;;;5.82;;
61054;SDS011;46939;48.940;8.258;2022-11-20T01:59:38;11.43;;;6.38;;
61054;SDS011;46939;48.940;8.258;2022-11-20T02:02:15;10.32;;;6.63;;
61054;SDS011;46939;48.940;8.258;2022-11-20T02:04:43;15.35;;;6.70;;
61054;SDS011;46939;48.940;8.258;2022-11-20T02:07:12;10.45;;;6.28;;
61054;SDS011;46939;48.940;8.258;2022-11-20T02:09:41;12.05;;;6.10;;
61054;SDS011;46939;48.940;8.258;2022-11-20T02:12:10;11.90;;;6.10;;
61054;SDS011;46939;48.940;8.258;2022-11-20T02:14:58;10.75;;;6.30;;
61054;SDS011;46939;48.940;8.258;2022-11-20T02:17:27;11.57;;;6.50;;
61054;SDS011;46939;48.940;8.258;2022-11-20T02:19:55;10.15;;;5.90;;
61054;SDS011;46939;48.940;8.258;2022-11-20T02:22:24;9.88;;;5.90;;
61054;SDS011;46939;48.940;8.258;2022-11-20T02:27:30;11.48;;;5.40;;
61054;SDS011;46939;48.940;8.258;2022-11-20T02:29:59;9.13;;;5.80;;
61054;SDS011;46939;48.940;8.258;2022-11-20T02:32:31;9.60;;;5.53;;
61054;SDS011;46939;48.940;8.258;2022-11-20T02:35:05;9.82;;;5.57;;
61054;SDS011;46939;48.940;8.258;2022-11-20T02:40:08;11.65;;;6.05;;
61054;SDS011;46939;48.940;8.258;2022-11-20T02:42:37;10.02;;;6.00;;
61054;SDS011;46939;48.940;8.258;2022-11-20T02:45:06;11.82;;;5.70;;
61054;SDS011;46939;48.940;8.258;2022-11-20T02:47:35;9.82;;;5.53;;
61054;SDS011;46939;48.940;8.258;2022-11-20T02:50:04;9.85;;;5.18;;
61054;SDS011;46939;48.940;8.258;2022-11-20T02:52:33;13.52;;;5.20;;
61054;SDS011;46939;48.940;8.258;2022-11-20T02:55:02;11.27;;;5.63;;
61054;SDS011;46939;48.940;8.258;2022-11-20T02:57:33;8.95;;;5.18;;
61054;SDS011;46939;48.940;8.258;2022-11-20T03:00:02;10.40;;;5.38;;
61054;SDS011;46939;48.940;8.258;2022-11-20T03:02:32;13.52;;;5.55;;
61054;SDS011;46939;48.940;8.258;2022-11-20T03:05:01;15.25;;;5.60;;
61054;SDS011;46939;48.940;8.258;2022-11-20T03:07:29;10.82;;;5.00;;
61054;SDS011;46939;48.940;8.258;2022-11-20T03:09:58;8.20;;;4.55;;
61054;SDS011;46939;48.940;8.258;2022-11-20T03:12:26;12.50;;;4.88;;
61054;SDS011;46939;48.940;8.258;2022-11-20T03:14:57;7.90;;;4.53;;
61054;SDS011;46939;48.940;8.258;2022-11-20T03:17:25;9.25;;;4.85;;
61054;SDS011;46939;48.940;8.258;2022-11-20T03:19:54;9.10;;;4.70;;
61054;SDS011;46939;48.940;8.258;2022-11-20T03:22:22;8.50;;;4.60;;
61054;SDS011;46939;48.940;8.258;2022-11-20T03:24:51;8.75;;;4.75;;
61054;SDS011;46939;48.940;8.258;2022-11-20T03:27:19;8.90;;;4.55;;
61054;SDS011;46939;48.940;8.258;2022-11-20T03:29:48;9.40;;;4.75;;
61054;SDS011;46939;48.940;8.258;2022-11-20T03:32:19;7.93;;;4.60;;
61054;SDS011;46939;48.940;8.258;2022-11-20T03:34:47;9.70;;;4.25;;
61054;SDS011;46939;48.940;8.258;2022-11-20T03:37:15;10.32;;;4.18;;
61054;SDS011;46939;48.940;8.258;2022-11-20T03:39:44;11.93;;;4.28;;
61054;SDS011;46939;48.940;8.258;2022-11-20T03:42:12;6.80;;;4.15;;
61054;SDS011;46939;48.940;8.258;2022-11-20T03:44:53;12.43;;;5.38;;
61054;SDS011;46939;48.940;8.258;2022-11-20T03:47:24;9.20;;;4.07;;
61054;SDS011;46939;48.940;8.258;2022-11-20T03:49:52;10.63;;;4.88;;
61054;SDS011;46939;48.940;8.258;2022-11-20T03:52:20;7.78;;;4.32;;
61054;SDS011;46939;48.940;8.258;2022-11-20T03:54:48;7.78;;;4.30;;
61054;SDS011;46939;48.940;8.258;2022-11-20T03:57:17;8.50;;;3.88;;
61054;SDS011;46939;48.940;8.258;2022-11-20T03:59:45;7.80;;;4.13;;
61054;SDS011;46939;48.940;8.258;2022-11-20T04:02:13;8.43;;;3.67;;
61054;SDS011;46939;48.940;8.258;2022-11-20T04:04:44;8.57;;;3.95;;
61054;SDS011;46939;48.940;8.258;2022-11-20T04:07:13;7.32;;;3.83;;
61054;SDS011;46939;48.940;8.258;2022-11-20T04:09:41;8.40;;;4.18;;
61054;SDS011;46939;48.940;8.258;2022-11-20T04:12:09;7.47;;;3.88;;
61054;SDS011;46939;48.940;8.258;2022-11-20T04:14:38;6.63;;;3.92;;
61054;SDS011;46939;48.940;8.258;2022-11-20T04:17:06;9.13;;;3.85;;
61054;SDS011;46939;48.940;8.258;2022-11-20T04:19:34;7.00;;;3.90;;
61054;SDS011;46939;48.940;8.258;2022-11-20T04:22:05;7.55;;;4.22;;
61054;SDS011;46939;48.940;8.258;2022-11-20T04:24:34;8.35;;;4.03;;
61054;SDS011;46939;48.940;8.258;2022-11-20T04:27:03;7.30;;;3.83;;
61054;SDS011;46939;48.940;8.258;2022-11-20T04:29:31;6.82;;;4.25;;
61054;SDS011;46939;48.940;8.258;2022-11-20T04:32:00;6.82;;;4.20;;
61054;SDS011;46939;48.940;8.258;2022-11-20T04:34:28;9.85;;;4.68;;
61054;SDS011;46939;48.940;8.258;2022-11-20T04:36:56;8.32;;;3.83;;
61054;SDS011;46939;48.940;8.258;2022-11-20T04:39:27;8.32;;;3.90;;
61054;SDS011;46939;48.940;8.258;2022-11-20T04:41:56;7.13;;;4.15;;
61054;SDS011;46939;48.940;8.258;2022-11-20T04:44:36;6.78;;;4.10;;
61054;SDS011;46939;48.940;8.258;2022-11-20T04:47:05;7.28;;;4.40;;
61054;SDS011;46939;48.940;8.258;2022-11-20T04:49:33;8.60;;;4.15;;
61054;SDS011;46939;48.940;8.258;2022-11-20T04:52:02;7.47;;;4.55;;
61054;SDS011;46939;48.940;8.258;2022-11-20T04:54:33;7.53;;;4.30;;
61054;SDS011;46939;48.940;8.258;2022-11-20T04:57:01;8.75;;;4.25;;
61054;SDS011;46939;48.940;8.258;2022-11-20T04:59:30;12.02;;;4.60;;
61054;SDS011;46939;48.940;8.258;2022-11-20T05:01:58;8.77;;;4.00;;
61054;SDS011;46939;48.940;8.258;2022-11-20T05:04:26;10.43;;;4.03;;
61054;SDS011;46939;48.940;8.258;2022-11-20T05:06:55;7.25;;;4.00;;
61054;SDS011;46939;48.940;8.258;2022-11-20T05:09:23;9.38;;;4.18;;
61054;SDS011;46939;48.940;8.258;2022-11-20T05:11:54;6.68;;;4.00;;
61054;SDS011;46939;48.940;8.258;2022-11-20T05:14:22;7.90;;;4.00;;
61054;SDS011;46939;48.940;8.258;2022-11-20T05:16:51;9.57;;;3.83;;
61054;SDS011;46939;48.940;8.258;2022-11-20T05:19:19;6.97;;;4.07;;
61054;SDS011;46939;48.940;8.258;2022-11-20T05:21:47;7.95;;;3.75;;
61054;SDS011;46939;48.940;8.258;2022-11-20T05:24:16;7.95;;;3.70;;
61054;SDS011;46939;48.940;8.258;2022-11-20T05:26:44;7.25;;;3.97;;
61054;SDS011;46939;48.940;8.258;2022-11-20T05:29:15;7.65;;;3.72;;
61054;SDS011;46939;48.940;8.258;2022-11-20T05:31:43;7.03;;;3.80;;
61054;SDS011;46939;48.940;8.258;2022-11-20T05:34:11;6.38;;;3.53;;
61054;SDS011;46939;48.940;8.258;2022-11-20T05:36:40;6.65;;;3.55;;
61054;SDS011;46939;48.940;8.258;2022-11-20T05:39:08;8.32;;;3.53;;
61054;SDS011;46939;48.940;8.258;2022-11-20T05:41:37;6.35;;;3.17;;
61054;SDS011;46939;48.940;8.258;2022-11-20T05:44:05;7.78;;;3.80;;
61054;SDS011;46939;48.940;8.258;2022-11-20T05:46:36;5.95;;;3.03;;
61054;SDS011;46939;48.940;8.258;2022-11-20T05:49:04;7.25;;;3.42;;
61054;SDS011;46939;48.940;8.258;2022-11-20T05:51:33;6.32;;;3.30;;
61054;SDS011;46939;48.940;8.258;2022-11-20T05:54:01;5.00;;;2.95;;
61054;SDS011;46939;48.940;8.258;2022-11-20T05:56:29;7.90;;;3.70;;
61054;SDS011;46939;48.940;8.258;2022-11-20T05:58:58;9.63;;;3.42;;
61054;SDS011;46939;48.940;8.258;2022-11-20T06:01:26;7.10;;;3.30;;
61054;SDS011;46939;48.940;8.258;2022-11-20T06:03:57;5.72;;;3.05;;
61054;SDS011;46939;48.940;8.258;2022-11-20T06:06:25;7.35;;;2.70;;
61054;SDS011;46939;48.940;8.258;2022-11-20T06:08:53;5.25;;;2.85;;
61054;SDS011;46939;48.940;8.258;2022-11-20T06:11:24;5.40;;;3.13;;
61054;SDS011;46939;48.940;8.258;2022-11-20T06:13:52;6.32;;;2.75;;
61054;SDS011;46939;48.940;8.258;2022-11-20T06:16:21;7.32;;;3.25;;
61054;SDS011;46939;48.940;8.258;2022-11-20T06:18:49;7.22;;;3.42;;
61054;SDS011;46939;48.940;8.258;2022-11-20T06:21:21;7.65;;;2.92;;
61054;SDS011;46939;48.940;8.258;2022-11-20T06:23:50;6.30;;;3.22;;
61054;SDS011;46939;48.940;8.258;2022-11-20T06:26:20;7.80;;;3.42;;
61054;SDS011;46939;48.940;8.258;2022-11-20T06:28:50;8.70;;;2.95;;
61054;SDS011;46939;48.940;8.258;2022-11-20T06:31:22;6.38;;;3.35;;
61054;SDS011;46939;48.940;8.258;2022-11-20T06:33:52;5.63;;;3.00;;
61054;SDS011;46939;48.940;8.258;2022-11-20T06:36:23;6.28;;;3.33;;
61054;SDS011;46939;48.940;8.258;2022-11-20T06:38:51;5.93;;;3.30;;
61054;SDS011;46939;48.940;8.258;2022-11-20T06:41:20;7.53;;;3.00;;
61054;SDS011;46939;48.940;8.258;2022-11-20T06:43:50;5.40;;;3.08;;
61054;SDS011;46939;48.940;8.258;2022-11-20T06:46:19;6.10;;;3.20;;
61054;SDS011;46939;48.940;8.258;2022-11-20T06:48:48;6.32;;;3.05;;
61054;SDS011;46939;48.940;8.258;2022-11-20T06:51:17;6.45;;;3.00;;
61054;SDS011;46939;48.940;8.258;2022-11-20T06:53:49;5.72;;;2.83;;
61054;SDS011;46939;48.940;8.258;2022-11-20T06:56:17;6.18;;;2.72;;
61054;SDS011;46939;48.940;8.258;2022-11-20T06:58:45;5.85;;;2.83;;
61054;SDS011;46939;48.940;8.258;2022-11-20T07:01:14;6.55;;;3.05;;
61054;SDS011;46939;48.940;8.258;2022-11-20T07:03:43;5.05;;;2.72;;
61054;SDS011;46939;48.940;8.258;2022-11-20T07:06:11;6.30;;;2.75;;
61054;SDS011;46939;48.940;8.258;2022-11-20T07:08:40;5.30;;;2.85;;
61054;SDS011;46939;48.940;8.258;2022-11-20T07:11:13;4.82;;;2.40;;
61054;SDS011;46939;48.940;8.258;2022-11-20T07:13:41;9.30;;;2.95;;
61054;SDS011;46939;48.940;8.258;2022-11-20T07:16:10;4.72;;;2.65;;
61054;SDS011;46939;48.940;8.258;2022-11-20T07:18:38;5.13;;;2.63;;
61054;SDS011;46939;48.940;8.258;2022-11-20T07:21:07;5.53;;;2.42;;
61054;SDS011;46939;48.940;8.258;2022-11-20T07:23:37;5.93;;;2.65;;
61054;SDS011;46939;48.940;8.258;2022-11-20T07:26:06;8.10;;;3.30;;
61054;SDS011;46939;48.940;8.258;2022-11-20T07:28:38;5.45;;;2.60;;
61054;SDS011;46939;48.940;8.258;2022-11-20T07:31:06;4.70;;;2.60;;
61054;SDS011;46939;48.940;8.258;2022-11-20T07:33:35;6.88;;;2.97;;
61054;SDS011;46939;48.940;8.258;2022-11-20T07:36:03;4.60;;;3.00;;
61054;SDS011;46939;48.940;8.258;2022-11-20T07:38:32;8.10;;;3.40;;
61054;SDS011;46939;48.940;8.258;2022-11-20T07:41:01;7.68;;;3.35;;
61054;SDS011;46939;48.940;8.258;2022-11-20T07:43:29;6.40;;;3.20;;
61054;SDS011;46939;48.940;8.258;2022-11-20T07:46:00;6.85;;;3.53;;
61054;SDS011;46939;48.940;8.258;2022-11-20T07:48:29;5.45;;;3.20;;
61054;SDS011;46939;48.940;8.258;2022-11-20T07:50:57;5.07;;;3.05;;
61054;SDS011;46939;48.940;8.258;2022-11-20T07:53:25;7.65;;;3.60;;
61054;SDS011;46939;48.940;8.258;2022-11-20T07:55:54;7.45;;;4.18;;
61054;SDS011;46939;48.940;8.258;2022-11-20T07:58:22;7.15;;;3.97;;
61054;SDS011;46939;48.940;8.258;2022-11-20T08:00:50;8.43;;;3.60;;
61054;SDS011;46939;48.940;8.258;2022-11-20T08:03:21;6.80;;;3.75;;
61054;SDS011;46939;48.940;8.258;2022-11-20T08:05:50;6.93;;;4.07;;
61054;SDS011;46939;48.940;8.258;2022-11-20T08:08:18;10.80;;;4.65;;
61054;SDS011;46939;48.940;8.258;2022-11-20T08:10:47;6.75;;;3.75;;
61054;SDS011;46939;48.940;8.258;2022-11-20T08:13:16;6.82;;;3.97;;
61054;SDS011;46939;48.940;8.258;2022-11-20T08:15:57;8.48;;;3.72;;
61054;SDS011;46939;48.940;8.258;2022-11-20T08:18:27;6.68;;;3.80;;
61054;SDS011;46939;48.940;8.258;2022-11-20T08:20:56;8.70;;;4.03;;
61054;SDS011;46939;48.940;8.258;2022-11-20T08:23:24;8.57;;;4.28;;
61054;SDS011;46939;48.940;8.258;2022-11-20T08:25:53;7.45;;;3.90;;
61054;SDS011;46939;48.940;8.258;2022-11-20T08:28:21;6.55;;;3.80;;
61054;SDS011;46939;48.940;8.258;2022-11-20T08:30:49;6.60;;;3.45;;
61054;SDS011;46939;48.940;8.258;2022-11-20T08:33:18;8.38;;;3.78;;
61054;SDS011;46939;48.940;8.258;2022-11-20T08:35:48;6.80;;;3.47;;
61054;SDS011;46939;48.940;8.258;2022-11-20T08:38:17;4.72;;;3.05;;
61054;SDS011;46939;48.940;8.258;2022-11-20T08:40:45;4.97;;;3.00;;
61054;SDS011;46939;48.940;8.258;2022-11-20T08:43:34;6.70;;;3.47;;
61054;SDS011;46939;48.940;8.258;2022-11-20T08:46:02;6.10;;;3.40;;
61054;SDS011;46939;48.940;8.258;2022-11-20T08:48:30;5.78;;;3.08;;
61054;SDS011;46939;48.940;8.258;2022-11-20T08:51:01;4.75;;;2.63;;
61054;SDS011;46939;48.940;8.258;2022-11-20T08:53:30;6.63;;;3.33;;
61054;SDS011;46939;48.940;8.258;2022-11-20T08:55:58;6.45;;;3.05;;
61054;SDS011;46939;48.940;8.258;2022-11-20T08:58:27;6.00;;;3.10;;
61054;SDS011;46939;48.940;8.258;2022-11-20T09:00:55;5.63;;;2.95;;
61054;SDS011;46939;48.940;8.258;2022-11-20T09:03:24;5.40;;;3.17;;
61054;SDS011;46939;48.940;8.258;2022-11-20T09:05:56;5.22;;;2.70;;
61054;SDS011;46939;48.940;8.258;2022-11-20T09:08:28;5.10;;;2.78;;
61054;SDS011;46939;48.940;8.258;2022-11-20T09:10:57;13.13;;;3.80;;
61054;SDS011;46939;48.940;8.258;2022-11-20T09:13:26;5.93;;;2.90;;
61054;SDS011;46939;48.940;8.258;2022-11-20T09:15:55;8.82;;;3.47;;
61054;SDS011;46939;48.940;8.258;2022-11-20T09:18:25;5.10;;;2.65;;
61054;SDS011;46939;48.940;8.258;2022-11-20T09:20:57;5.47;;;3.28;;
61054;SDS011;46939;48.940;8.258;2022-11-20T09:23:30;6.65;;;3.33;;
61054;SDS011;46939;48.940;8.258;2022-11-20T09:26:01;7.82;;;3.67;;
61054;SDS011;46939;48.940;8.258;2022-11-20T09:28:31;7.75;;;3.10;;
61054;SDS011;46939;48.940;8.258;2022-11-20T09:30:59;7.43;;;3.17;;
61054;SDS011;46939;48.940;8.258;2022-11-20T09:33:28;6.22;;;3.13;;
61054;SDS011;46939;48.940;8.258;2022-11-20T09:35:57;6.13;;;3.40;;
61054;SDS011;46939;48.940;8.258;2022-11-20T09:38:28;10.90;;;3.65;;
61054;SDS011;46939;48.940;8.258;2022-11-20T09:40:57;6.28;;;3.70;;
61054;SDS011;46939;48.940;8.258;2022-11-20T09:43:30;7.85;;;3.65;;
61054;SDS011;46939;48.940;8.258;2022-11-20T09:46:07;5.78;;;3.53;;
61054;SDS011;46939;48.940;8.258;2022-11-20T09:48:43;6.47;;;3.72;;
61054;SDS011;46939;48.940;8.258;2022-11-20T09:51:26;7.10;;;3.70;;
61054;SDS011;46939;48.940;8.258;2022-11-20T09:54:12;7.15;;;3.75;;
61054;SDS011;46939;48.940;8.258;2022-11-20T09:56:44;6.00;;;3.38;;
61054;SDS011;46939;48.940;8.258;2022-11-20T09:59:25;6.35;;;3.20;;
61054;SDS011;46939;48.940;8.258;2022-11-20T10:02:02;7.00;;;3.35;;
61054;SDS011;46939;48.940;8.258;2022-11-20T10:04:40;4.75;;;2.83;;
61054;SDS011;46939;48.940;8.258;2022-11-20T10:07:16;5.10;;;2.88;;
61054;SDS011;46939;48.940;8.258;2022-11-20T10:09:53;6.32;;;3.40;;
61054;SDS011;46939;48.940;8.258;2022-11-20T10:12:25;5.63;;;3.10;;
61054;SDS011;46939;48.940;8.258;2022-11-20T10:15:07;6.93;;;2.90;;
61054;SDS011;46939;48.940;8.258;2022-11-20T10:17:52;5.95;;;3.22;;
61054;SDS011;46939;48.940;8.258;2022-11-20T10:20:46;6.45;;;3.15;;
61054;SDS011;46939;48.940;8.258;2022-11-20T10:23:28;6.38;;;3.17;;
61054;SDS011;46939;48.940;8.258;2022-11-20T10:26:21;9.05;;;3.58;;
61054;SDS011;46939;48.940;8.258;2022-11-20T10:29:01;7.95;;;3.00;;
61054;SDS011;46939;48.940;8.258;2022-11-20T10:31:38;6.22;;;3.53;;
61054;SDS011;46939;48.940;8.258;2022-11-20T10:34:12;7.15;;;3.42;;
61054;SDS011;46939;48.940;8.258;2022-11-20T10:36:50;8.45;;;3.28;;
61054;SDS011;46939;48.940;8.258;2022-11-20T10:39:25;8.40;;;4.07;;
61054;SDS011;46939;48.940;8.258;2022-11-20T10:42:02;7.03;;;3.25;;
61054;SDS011;46939;48.940;8.258;2022-11-20T10:44:38;9.93;;;3.40;;
61054;SDS011;46939;48.940;8.258;2022-11-20T10:47:30;7.18;;;3.00;;
61054;SDS011;46939;48.940;8.258;2022-11-20T10:50:01;6.55;;;2.95;;
61054;SDS011;46939;48.940;8.258;2022-11-20T10:52:33;5.45;;;2.70;;
61054;SDS011;46939;48.940;8.258;2022-11-20T10:55:11;5.55;;;2.83;;
61054;SDS011;46939;48.940;8.258;2022-11-20T10:57:57;7.55;;;2.65;;
61054;SDS011;46939;48.940;8.258;2022-11-20T11:00:32;9.45;;;2.72;;
61054;SDS011;46939;48.940;8.258;2022-11-20T11:03:00;6.25;;;2.88;;
61054;SDS011;46939;48.940;8.258;2022-11-20T11:05:33;9.60;;;3.50;;
61054;SDS011;46939;48.940;8.258;2022-11-20T11:08:08;12.70;;;4.20;;
61054;SDS011;46939;48.940;8.258;2022-11-20T11:10:43;9.52;;;4.35;;
61054;SDS011;46939;48.940;8.258;2022-11-20T11:13:22;4.90;;;2.30;;
61054;SDS011;46939;48.940;8.258;2022-11-20T11:16:04;6.65;;;2.20;;
61054;SDS011;46939;48.940;8.258;2022-11-20T11:18:34;6.72;;;2.88;;
61054;SDS011;46939;48.940;8.258;2022-11-20T11:21:03;7.53;;;2.72;;
61054;SDS011;46939;48.940;8.258;2022-11-20T11:23:33;5.22;;;2.70;;
61054;SDS011;46939;48.940;8.258;2022-11-20T11:26:05;7.03;;;2.13;;
61054;SDS011;46939;48.940;8.258;2022-11-20T11:28:37;5.53;;;2.42;;
61054;SDS011;46939;48.940;8.258;2022-11-20T11:31:06;8.52;;;1.85;;
61054;SDS011;46939;48.940;8.258;2022-11-20T11:33:34;6.45;;;1.90;;
61054;SDS011;46939;48.940;8.258;2022-11-20T11:36:04;4.93;;;1.58;;
61054;SDS011;46939;48.940;8.258;2022-11-20T11:38:48;3.78;;;1.55;;
61054;SDS011;46939;48.940;8.258;2022-11-20T11:41:20;8.75;;;2.28;;
61054;SDS011;46939;48.940;8.258;2022-11-20T11:43:53;6.80;;;2.03;;
61054;SDS011;46939;48.940;8.258;2022-11-20T11:46:36;4.80;;;1.45;;
61054;SDS011;46939;48.940;8.258;2022-11-20T11:49:15;7.55;;;1.88;;
61054;SDS011;46939;48.940;8.258;2022-11-20T11:51:49;5.80;;;2.17;;
61054;SDS011;46939;48.940;8.258;2022-11-20T11:54:30;3.95;;;1.50;;
61054;SDS011;46939;48.940;8.258;2022-11-20T11:57:05;5.05;;;1.83;;
61054;SDS011;46939;48.940;8.258;2022-11-20T11:59:47;4.90;;;1.88;;
61054;SDS011;46939;48.940;8.258;2022-11-20T12:02:34;5.57;;;1.45;;
61054;SDS011;46939;48.940;8.258;2022-11-20T12:05:09;4.22;;;1.40;;
61054;SDS011;46939;48.940;8.258;2022-11-20T12:07:46;4.50;;;1.30;;
61054;SDS011;46939;48.940;8.258;2022-11-20T12:10:17;6.18;;;1.40;;
61054;SDS011;46939;48.940;8.258;2022-11-20T12:12:51;5.53;;;1.58;;
61054;SDS011;46939;48.940;8.258;2022-11-20T12:15:28;3.67;;;1.00;;
61054;SDS011;46939;48.940;8.258;2022-11-20T12:17:58;5.20;;;1.30;;
61054;SDS011;46939;48.940;8.258;2022-11-20T12:20:28;3.97;;;0.75;;
61054;SDS011;46939;48.940;8.258;2022-11-20T12:23:04;4.80;;;1.10;;
61054;SDS011;46939;48.940;8.258;2022-11-20T12:25:38;3.60;;;0.90;;
61054;SDS011;46939;48.940;8.258;2022-11-20T12:28:23;3.45;;;1.33;;
61054;SDS011;46939;48.940;8.258;2022-11-20T12:31:19;5.15;;;1.30;;
61054;SDS011;46939;48.940;8.258;2022-11-20T12:34:08;3.83;;;1.17;;
61054;SDS011;46939;48.940;8.258;2022-11-20T12:36:49;2.72;;;0.90;;
61054;SDS011;46939;48.940;8.258;2022-11-20T12:39:29;3.45;;;1.00;;
61054;SDS011;46939;48.940;8.258;2022-11-20T12:42:08;3.13;;;1.20;;
61054;SDS011;46939;48.940;8.258;2022-11-20T12:45:02;2.67;;;0.80;;
61054;SDS011;46939;48.940;8.258;2022-11-20T12:51:02;4.13;;;0.85;;
61054;SDS011;46939;48.940;8.258;2022-11-20T12:53:43;4.60;;;1.20;;
61054;SDS011;46939;48.940;8.258;2022-11-20T12:56:25;3.33;;;0.80;;
61054;SDS011;46939;48.940;8.258;2022-11-20T12:59:02;4.85;;;0.70;;
61054;SDS011;46939;48.940;8.258;2022-11-20T13:01:45;2.42;;;0.80;;
61054;SDS011;46939;48.940;8.258;2022-11-20T13:04:28;3.27;;;0.57;;
61054;SDS011;46939;48.940;8.258;2022-11-20T13:07:12;2.83;;;0.90;;
61054;SDS011;46939;48.940;8.258;2022-11-20T13:09:43;2.40;;;0.70;;
61054;SDS011;46939;48.940;8.258;2022-11-20T13:12:15;2.92;;;0.90;;
61054;SDS011;46939;48.940;8.258;2022-11-20T13:14:52;4.90;;;0.75;;
61054;SDS011;46939;48.940;8.258;2022-11-20T13:17:28;4.18;;;1.08;;
61054;SDS011;46939;48.940;8.258;2022-11-20T13:20:03;3.72;;;0.55;;
61054;SDS011;46939;48.940;8.258;2022-11-20T13:22:44;1.70;;;0.63;;
61054;SDS011;46939;48.940;8.258;2022-11-20T13:25:24;2.20;;;0.60;;
61054;SDS011;46939;48.940;8.258;2022-11-20T13:27:54;2.90;;;0.98;;
61054;SDS011;46939;48.940;8.258;2022-11-20T13:30:24;3.90;;;0.80;;
61054;SDS011;46939;48.940;8.258;2022-11-20T13:32:54;6.20;;;0.85;;
61054;SDS011;46939;48.940;8.258;2022-11-20T13:35:27;2.45;;;0.75;;
61054;SDS011;46939;48.940;8.258;2022-11-20T13:38:03;2.20;;;0.98;;
61054;SDS011;46939;48.940;8.258;2022-11-20T13:40:34;4.03;;;0.90;;
61054;SDS011;46939;48.940;8.258;2022-11-20T13:43:11;6.03;;;1.10;;
61054;SDS011;46939;48.940;8.258;2022-11-20T13:45:54;3.03;;;1.02;;
61054;SDS011;46939;48.940;8.258;2022-11-20T13:48:25;5.60;;;1.05;;
61054;SDS011;46939;48.940;8.258;2022-11-20T13:51:00;2.72;;;0.60;;
61054;SDS011;46939;48.940;8.258;2022-11-20T13:54:07;6.22;;;0.60;;
61054;SDS011;46939;48.940;8.258;2022-11-20T13:56:53;1.75;;;0.50;;
61054;SDS011;46939;48.940;8.258;2022-11-20T13:59:32;2.85;;;0.85;;
61054;SDS011;46939;48.940;8.258;2022-11-20T14:02:10;4.57;;;0.63;;
61054;SDS011;46939;48.940;8.258;2022-11-20T14:04:42;1.58;;;0.70;;
61054;SDS011;46939;48.940;8.258;2022-11-20T14:07:13;4.38;;;0.73;;
61054;SDS011;46939;48.940;8.258;2022-11-20T14:09:51;1.35;;;0.60;;
61054;SDS011;46939;48.940;8.258;2022-11-20T14:12:23;5.07;;;0.93;;
61054;SDS011;46939;48.940;8.258;2022-11-20T14:14:55;2.13;;;0.60;;
61054;SDS011;46939;48.940;8.258;2022-11-20T14:17:29;1.95;;;0.73;;
61054;SDS011;46939;48.940;8.258;2022-11-20T14:19:59;2.28;;;0.75;;
61054;SDS011;46939;48.940;8.258;2022-11-20T14:22:30;1.70;;;0.73;;
61054;SDS011;46939;48.940;8.258;2022-11-20T14:25:05;3.67;;;1.02;;
61054;SDS011;46939;48.940;8.258;2022-11-20T14:27:47;4.25;;;0.95;;
61054;SDS011;46939;48.940;8.258;2022-11-20T14:30:20;3.05;;;0.70;;
61054;SDS011;46939;48.940;8.258;2022-11-20T14:32:50;3.58;;;0.65;;
61054;SDS011;46939;48.940;8.258;2022-11-20T14:35:24;5.20;;;1.05;;
61054;SDS011;46939;48.940;8.258;2022-11-20T14:37:53;1.90;;;0.70;;
61054;SDS011;46939;48.940;8.258;2022-11-20T14:40:26;3.22;;;0.77;;
61054;SDS011;46939;48.940;8.258;2022-11-20T14:42:57;3.95;;;0.90;;
61054;SDS011;46939;48.940;8.258;2022-11-20T14:45:26;3.80;;;0.60;;
61054;SDS011;46939;48.940;8.258;2022-11-20T14:47:55;2.30;;;0.60;;
61054;SDS011;46939;48.940;8.258;2022-11-20T14:50:26;2.08;;;0.70;;
61054;SDS011;46939;48.940;8.258;2022-11-20T14:52:56;1.75;;;0.70;;
61054;SDS011;46939;48.940;8.258;2022-11-20T14:55:30;3.58;;;0.95;;
61054;SDS011;46939;48.940;8.258;2022-11-20T14:58:00;1.52;;;0.50;;
61054;SDS011;46939;48.940;8.258;2022-11-20T15:00:31;1.65;;;0.70;;
61054;SDS011;46939;48.940;8.258;2022-11-20T15:03:02;2.70;;;0.80;;
61054;SDS011;46939;48.940;8.258;2022-11-20T15:05:43;3.55;;;0.80;;
61054;SDS011;46939;48.940;8.258;2022-11-20T15:08:13;5.03;;;1.02;;
61054;SDS011;46939;48.940;8.258;2022-11-20T15:10:47;3.63;;;0.85;;
61054;SDS011;46939;48.940;8.258;2022-11-20T15:13:19;4.10;;;0.88;;
61054;SDS011;46939;48.940;8.258;2022-11-20T15:15:54;2.28;;;0.45;;
61054;SDS011;46939;48.940;8.258;2022-11-20T15:18:23;2.50;;;0.65;;
61054;SDS011;46939;48.940;8.258;2022-11-20T15:20:56;3.50;;;0.80;;
61054;SDS011;46939;48.940;8.258;2022-11-20T15:23:26;3.17;;;0.68;;